Time;durP1;ratioP1;P1;durP2;ratioP2;P2;SDS_P1;SDS_P2;PMS_P1;PMS_P2;Temp;Humidity;BMP_temperature;BMP_pressure;BME280_temperature;BME280_humidity;BME280_pressure;Samples;Min_cycle;Max_cycle;Signal;HPM_P1;HPM_P2
2021/05/02 00:00:16;;;;;;;30.15;19.73;;;;;;;5.66;100.00;95009.44;1015257;29;20032;-67
2021/05/02 00:00:46;;;;;;;31.52;20.40;;;;;;;5.66;100.00;95012.06;1011769;29;20016;-68
2021/05/02 00:01:17;;;;;;;27.63;19.60;;;;;;;5.66;100.00;95014.66;1019542;29;20354;-68
2021/05/02 00:01:48;;;;;;;30.98;20.23;;;;;;;5.64;100.00;95009.72;1024001;28;20037;-70
2021/05/02 00:02:18;;;;;;;29.45;20.55;;;;;;;5.65;100.00;95013.09;1021722;28;20031;-69
2021/05/02 00:02:49;;;;;;;31.42;20.23;;;;;;;5.65;100.00;95008.66;1026944;28;20031;-68
2021/05/02 00:03:19;;;;;;;27.40;18.10;;;;;;;5.67;100.00;95011.81;1031411;28;20226;-68
2021/05/02 00:03:50;;;;;;;27.88;18.55;;;;;;;5.65;100.00;95011.28;1026998;28;20074;-68
2021/05/02 00:04:20;;;;;;;27.27;18.60;;;;;;;5.67;100.00;95008.44;1023644;28;20042;-69
2021/05/02 00:04:50;;;;;;;33.08;21.42;;;;;;;5.66;100.00;95014.66;1027095;28;20042;-69
2021/05/02 00:05:22;;;;;;;28.00;19.15;;;;;;;5.59;100.00;94996.66;1022137;28;20046;-67
2021/05/02 00:05:52;;;;;;;26.98;17.58;;;;;;;5.68;100.00;94999.59;1027505;28;20026;-68
2021/05/02 00:06:23;;;;;;;30.75;20.10;;;;;;;5.65;100.00;95013.09;1023107;29;20274;-68
2021/05/02 00:06:53;;;;;;;30.35;20.27;;;;;;;5.62;100.00;95011.00;1019164;29;20039;-68
2021/05/02 00:07:24;;;;;;;29.65;18.75;;;;;;;5.47;100.00;94984.88;1022341;28;20035;-68
2021/05/02 00:07:54;;;;;;;25.58;18.83;;;;;;;5.61;100.00;95007.59;1025649;28;20042;-70
2021/05/02 00:08:26;;;;;;;34.90;21.20;;;;;;;5.62;100.00;95014.38;1027780;28;20540;-69
2021/05/02 00:08:57;;;;;;;27.05;18.58;;;;;;;5.63;100.00;95009.94;1026605;28;20034;-68
2021/05/02 00:09:29;;;;;;;26.73;17.88;;;;;;;5.62;100.00;95013.59;1016878;29;20286;-68
2021/05/02 00:09:59;;;;;;;34.72;20.88;;;;;;;5.63;100.00;95010.75;1015563;29;20091;-69
2021/05/02 00:10:31;;;;;;;26.95;18.55;;;;;;;5.63;100.00;95015.16;1023433;28;20761;-71
2021/05/02 00:11:03;;;;;;;29.98;19.38;;;;;;;5.57;100.00;95008.38;1027318;28;20042;-68
2021/05/02 00:11:33;;;;;;;29.77;18.55;;;;;;;5.62;100.00;95016.19;1022956;29;20428;-68
2021/05/02 00:12:04;;;;;;;24.05;17.63;;;;;;;5.62;100.00;95008.38;1023135;29;20333;-68
2021/05/02 00:12:35;;;;;;;29.30;18.38;;;;;;;5.59;100.00;95014.09;1023498;29;20031;-68
2021/05/02 00:13:06;;;;;;;29.50;19.55;;;;;;;5.58;100.00;95013.31;1023055;28;20875;-68
2021/05/02 00:13:37;;;;;;;28.38;19.67;;;;;;;5.60;100.00;95015.66;1027350;28;20073;-68
2021/05/02 00:14:08;;;;;;;31.30;19.80;;;;;;;5.60;100.00;95018.25;1023183;29;20277;-68
2021/05/02 00:14:38;;;;;;;28.83;19.30;;;;;;;5.59;100.00;95014.09;1019134;29;20039;-69
2021/05/02 00:15:11;;;;;;;24.52;17.55;;;;;;;5.60;100.00;95020.84;1014417;29;20036;-70
2021/05/02 00:15:41;;;;;;;31.35;19.77;;;;;;;5.59;100.00;95019.28;1014824;29;20485;-67
2021/05/02 00:16:12;;;;;;;31.58;19.55;;;;;;;5.57;100.00;95019.56;1015968;29;20280;-68
2021/05/02 00:16:42;;;;;;;28.52;18.23;;;;;;;5.59;100.00;95016.69;1019870;28;20417;-70
2021/05/02 00:17:13;;;;;;;24.60;18.15;;;;;;;5.57;100.00;95021.38;1023029;29;20031;-68
2021/05/02 00:17:44;;;;;;;31.30;18.65;;;;;;;5.56;100.00;95010.16;1015265;29;20099;-68
2021/05/02 00:18:15;;;;;;;27.08;18.50;;;;;;;5.57;100.00;95016.94;1019234;29;20024;-68
2021/05/02 00:18:46;;;;;;;34.88;20.42;;;;;;;5.57;100.00;95018.78;1019492;29;20263;-68
2021/05/02 00:19:16;;;;;;;31.83;20.50;;;;;;;5.55;100.00;95013.78;1023728;28;20090;-70
2021/05/02 00:19:47;;;;;;;29.67;18.42;;;;;;;5.58;100.00;95015.13;1019368;29;20278;-68
2021/05/02 00:20:20;;;;;;;36.05;20.42;;;;;;;5.60;100.00;95016.44;1015320;29;20784;-68
2021/05/02 00:20:52;;;;;;;29.55;19.08;;;;;;;5.61;100.00;95012.03;1019609;29;20031;-68
2021/05/02 00:21:22;;;;;;;28.95;18.92;;;;;;;5.61;100.00;95022.44;1023914;28;20298;-69
2021/05/02 00:21:53;;;;;;;31.38;19.77;;;;;;;5.59;100.00;95020.06;1029300;28;20269;-68
2021/05/02 00:22:23;;;;;;;24.60;17.30;;;;;;;5.58;100.00;95012.53;1031274;28;20093;-68
2021/05/02 00:23:00;;;;;;;23.63;16.02;;;;;;;5.57;100.00;95023.97;1031233;28;20038;-68
2021/05/02 00:23:33;;;;;;;23.05;16.10;;;;;;;5.55;100.00;95013.03;1024953;28;20066;-70
2021/05/02 00:24:04;;;;;;;25.95;17.55;;;;;;;5.55;100.00;95018.22;1016278;29;20276;-68
2021/05/02 00:24:34;;;;;;;23.25;16.23;;;;;;;5.55;100.00;95024.22;1018074;29;20351;-68
2021/05/02 00:25:06;;;;;;;20.00;14.80;;;;;;;5.53;100.00;95017.69;1015327;29;20132;-69
2021/05/02 00:25:36;;;;;;;25.50;18.00;;;;;;;5.54;100.00;95022.66;1023747;28;20386;-68
2021/05/02 00:26:07;;;;;;;26.10;17.98;;;;;;;5.54;100.00;95016.66;1027308;28;20281;-69
2021/05/02 00:26:38;;;;;;;28.63;19.23;;;;;;;5.54;100.00;95027.06;1026991;28;20104;-65
2021/05/02 00:27:08;;;;;;;24.73;17.08;;;;;;;5.51;100.00;95023.13;1026328;28;20023;-67
2021/05/02 00:27:39;;;;;;;26.25;18.02;;;;;;;5.53;100.00;95025.47;1027534;28;20150;-69
2021/05/02 00:28:09;;;;;;;27.90;18.88;;;;;;;5.51;100.00;95022.34;1022769;29;20118;-67
2021/05/02 00:28:44;;;;;;;33.70;20.65;;;;;;;5.45;100.00;95013.72;1025657;28;20058;-67
2021/05/02 00:29:15;;;;;;;22.10;16.92;;;;;;;5.50;100.00;95023.38;1026772;28;20037;-68
2021/05/02 00:29:45;;;;;;;25.25;18.35;;;;;;;5.49;100.00;95029.63;1027218;28;20278;-69
2021/05/02 00:30:19;;;;;;;22.80;16.80;;;;;;;5.47;100.00;95021.28;1031988;28;20022;-70
2021/05/02 00:30:49;;;;;;;22.73;16.25;;;;;;;5.51;100.00;95027.56;1031630;28;20026;-68
2021/05/02 00:31:20;;;;;;;27.50;17.67;;;;;;;5.54;100.00;95029.69;1034838;28;20261;-67
2021/05/02 00:31:50;;;;;;;29.17;18.60;;;;;;;5.51;100.00;95022.34;1026564;28;20031;-69
2021/05/02 00:32:21;;;;;;;26.00;18.13;;;;;;;5.51;100.00;95027.56;1023154;28;20028;-70
2021/05/02 00:32:54;;;;;;;28.48;18.15;;;;;;;5.50;100.00;95025.97;1027071;28;20023;-68
2021/05/02 00:33:24;;;;;;;39.65;21.92;;;;;;;5.36;100.00;94999.59;1023799;28;20668;-68
2021/05/02 00:33:55;;;;;;;34.55;21.13;;;;;;;5.45;100.00;95013.72;1022271;29;20274;-69
2021/05/02 00:34:27;;;;;;;31.30;19.30;;;;;;;5.51;100.00;95033.53;1019352;29;20035;-68
2021/05/02 00:34:58;;;;;;;32.38;19.42;;;;;;;5.55;100.00;95033.84;1027118;28;20055;-69
2021/05/02 00:35:28;;;;;;;23.05;16.30;;;;;;;5.54;100.00;95037.47;1021827;28;21727;-68
2021/05/02 00:35:59;;;;;;;23.80;17.08;;;;;;;5.53;100.00;95033.28;1023439;29;20027;-68
2021/05/02 00:36:29;;;;;;;25.70;17.30;;;;;;;5.48;100.00;95028.84;1014603;29;20055;-68
2021/05/02 00:37:01;;;;;;;32.00;19.95;;;;;;;5.56;100.00;95035.41;1015196;29;20722;-69
2021/05/02 00:37:31;;;;;;;24.75;17.10;;;;;;;5.56;100.00;95035.41;1015653;29;20030;-69
2021/05/02 00:38:02;;;;;;;27.90;17.38;;;;;;;5.60;100.00;95041.66;1019338;28;20688;-68
2021/05/02 00:38:36;;;;;;;29.50;19.13;;;;;;;5.59;100.00;95045.31;1023092;29;20031;-68
2021/05/02 00:39:07;;;;;;;26.85;17.98;;;;;;;5.56;100.00;95035.41;1020549;28;20024;-70
2021/05/02 00:39:37;;;;;;;27.27;17.27;;;;;;;5.52;100.00;95034.31;1023394;29;20373;-68
2021/05/02 00:40:15;;;;;;;24.23;17.27;;;;;;;5.51;100.00;95035.38;1016023;29;20088;-68
2021/05/02 00:40:46;;;;;;;27.42;17.48;;;;;;;5.53;100.00;95048.91;1020702;29;20027;-68
2021/05/02 00:41:22;;;;;;;22.40;15.45;;;;;;;5.54;100.00;95048.66;1027332;28;20270;-67
2021/05/02 00:41:53;;;;;;;35.80;20.08;;;;;;;5.48;100.00;95039.25;1027119;28;20413;-67
2021/05/02 00:42:25;;;;;;;26.20;17.27;;;;;;;5.40;100.00;95035.28;1018313;29;20302;-70
2021/05/02 00:42:55;;;;;;;23.35;16.25;;;;;;;5.53;100.00;95051.50;1022482;29;20409;-68
2021/05/02 00:43:47;;;;;;;30.20;18.80;;;;;;;5.52;100.00;95049.94;1019397;29;20271;-68
2021/05/02 00:44:41;;;;;;;18.85;14.13;;;;;;;5.50;100.00;95045.00;1023527;29;20031;-68
2021/05/02 00:45:12;;;;;;;23.83;14.95;;;;;;;5.52;100.00;95049.94;1020461;28;20263;-68
2021/05/02 00:45:57;;;;;;;25.65;16.88;;;;;;;5.50;100.00;95058.00;1023018;29;20278;-68
2021/05/02 00:46:37;;;;;;;22.98;14.73;;;;;;;5.43;100.00;95052.19;1023188;29;20103;-70
2021/05/02 00:47:12;;;;;;;21.33;14.02;;;;;;;5.47;100.00;95053.28;1018518;29;20263;-70
2021/05/02 00:47:44;;;;;;;23.75;13.93;;;;;;;5.44;100.00;95048.59;1013958;29;20087;-68
2021/05/02 00:48:35;;;;;;;20.17;12.77;;;;;;;5.31;100.00;95036.75;1019187;29;20714;-68
2021/05/02 00:49:27;;;;;;;;;;;;;;;5.43;100.00;95050.41;1027244;28;20273;-66
2021/05/02 00:49:59;;;;;;;23.33;13.45;;;;;;;5.41;100.00;95049.84;1033165;28;19945;-68
2021/05/02 00:50:33;;;;;;;22.20;13.20;;;;;;;5.42;100.00;95048.81;1030529;28;20273;-68
2021/05/02 00:51:05;;;;;;;18.80;12.88;;;;;;;5.41;100.00;95049.06;1019636;28;20279;-68
2021/05/02 00:51:38;;;;;;;16.33;11.27;;;;;;;5.41;100.00;95049.84;1019243;29;20279;-69
2021/05/02 00:52:16;;;;;;;17.13;12.05;;;;;;;5.37;100.00;95048.78;1019334;29;20271;-68
2021/05/02 00:52:47;;;;;;;21.08;12.23;;;;;;;5.41;100.00;95046.47;1015251;29;20280;-67
2021/05/02 00:53:23;;;;;;;16.02;11.23;;;;;;;5.41;100.00;95049.84;1015278;29;20267;-68
2021/05/02 00:53:53;;;;;;;15.18;10.68;;;;;;;5.40;100.00;95045.69;1021274;28;20518;-68
2021/05/02 00:54:38;;;;;;;17.30;12.23;;;;;;;5.41;100.00;95054.28;1026208;28;20285;-69
2021/05/02 00:55:09;;;;;;;16.63;11.23;;;;;;;5.29;100.00;95036.19;1022793;29;20047;-67
2021/05/02 00:55:56;;;;;;;14.95;10.60;;;;;;;5.38;100.00;95054.75;1031550;28;20305;-68
2021/05/02 00:56:29;;;;;;;20.20;12.45;;;;;;;5.40;100.00;95050.91;1031541;28;20987;-68
2021/05/02 00:57:11;;;;;;;17.63;11.93;;;;;;;5.41;100.00;95055.06;1030862;28;20265;-68
2021/05/02 00:58:01;;;;;;;15.82;10.73;;;;;;;5.36;100.00;95049.78;1022624;28;20855;-68
2021/05/02 00:58:51;;;;;;;17.13;11.02;;;;;;;5.35;100.00;95048.22;1027193;28;20266;-68
2021/05/02 00:59:25;;;;;;;18.55;11.13;;;;;;;5.32;100.00;95046.13;1031200;28;20368;-68
2021/05/02 00:59:59;;;;;;;15.80;11.40;;;;;;;5.32;100.00;95045.34;1031178;28;20273;-68
2021/05/02 01:00:39;;;;;;;17.85;12.05;;;;;;;5.33;100.00;95058.13;1019635;29;20840;-69
2021/05/02 01:01:09;;;;;;;18.83;12.05;;;;;;;5.33;100.00;95058.13;1018740;29;20279;-69
2021/05/02 01:01:42;;;;;;;20.58;13.07;;;;;;;5.32;100.00;95056.53;1017816;29;20207;-68
2021/05/02 01:02:13;;;;;;;18.10;11.88;;;;;;;5.33;100.00;95055.50;1016040;29;20032;-67
2021/05/02 01:02:43;;;;;;;13.80;10.48;;;;;;;5.34;100.00;95051.88;1006983;29;21156;-67
2021/05/02 01:03:14;;;;;;;12.75;9.38;;;;;;;5.30;100.00;95058.59;1015508;29;20032;-68
2021/05/02 01:03:46;;;;;;;14.43;10.52;;;;;;;5.32;100.00;95051.31;1023100;29;20038;-68
2021/05/02 01:04:24;;;;;;;13.65;10.50;;;;;;;5.33;100.00;95057.31;1022304;29;20019;-68
2021/05/02 01:04:55;;;;;;;14.07;10.10;;;;;;;5.30;100.00;95063.81;1019141;29;20693;-67
2021/05/02 01:05:27;;;;;;;18.60;12.15;;;;;;;5.30;100.00;95053.41;1018365;29;20267;-68
2021/05/02 01:05:59;;;;;;;15.30;9.90;;;;;;;5.33;100.00;95067.72;1018207;29;20782;-68
2021/05/02 01:06:31;;;;;;;11.43;9.15;;;;;;;5.31;100.00;95065.38;1022592;29;20271;-67
2021/05/02 01:07:03;;;;;;;12.45;9.85;;;;;;;5.31;100.00;95062.75;1027764;28;20270;-69
2021/05/02 01:07:35;;;;;;;14.60;11.10;;;;;;;5.32;100.00;95061.72;1027922;28;20282;-68
2021/05/02 01:08:05;;;;;;;17.88;10.50;;;;;;;5.31;100.00;95059.38;1027046;28;20381;-69
2021/05/02 01:08:36;;;;;;;17.15;11.43;;;;;;;5.28;100.00;95059.88;1022713;29;20283;-69
2021/05/02 01:09:08;;;;;;;16.63;11.30;;;;;;;5.32;100.00;95056.53;1015700;29;20112;-68
2021/05/02 01:09:38;;;;;;;15.52;10.52;;;;;;;5.29;100.00;95061.44;1019816;29;20777;-68
2021/05/02 01:10:13;;;;;;;17.83;11.63;;;;;;;5.34;100.00;95064.88;1023635;28;20258;-68
2021/05/02 01:10:45;;;;;;;15.60;11.65;;;;;;;5.32;100.00;95059.13;1027159;28;20031;-68
2021/05/02 01:11:15;;;;;;;16.17;11.38;;;;;;;5.27;100.00;95066.91;1025203;28;20282;-69
2021/05/02 01:11:46;;;;;;;16.52;10.27;;;;;;;5.28;100.00;95068.47;1023056;29;20263;-68
2021/05/02 01:12:18;;;;;;;18.35;11.95;;;;;;;5.27;100.00;95072.09;1022835;29;20031;-67
2021/05/02 01:12:50;;;;;;;15.90;10.40;;;;;;;5.19;100.00;95062.13;1019354;29;20264;-68
2021/05/02 01:13:21;;;;;;;12.85;9.40;;;;;;;5.26;100.00;95078.31;1019785;29;20353;-68
2021/05/02 01:13:59;;;;;;;14.65;10.55;;;;;;;5.26;100.00;95073.09;1018922;29;20275;-68
2021/05/02 01:14:31;;;;;;;14.05;9.57;;;;;;;5.26;100.00;95073.09;1018850;29;20028;-68
2021/05/02 01:15:01;;;;;;;18.25;11.55;;;;;;;5.28;100.00;95078.84;1011184;29;20268;-70
2021/05/02 01:15:33;;;;;;;15.45;11.18;;;;;;;5.25;100.00;95079.34;1015171;29;20658;-68
2021/05/02 01:16:05;;;;;;;16.80;10.40;;;;;;;5.23;100.00;95070.22;1019181;29;20032;-71
2021/05/02 01:16:35;;;;;;;16.17;10.15;;;;;;;5.22;100.00;95077.22;1026425;28;20278;-69
2021/05/02 01:17:06;;;;;;;14.95;10.10;;;;;;;5.22;100.00;95076.44;1023272;29;20726;-68
2021/05/02 01:17:39;;;;;;;16.48;11.13;;;;;;;5.24;100.00;95079.59;1019105;29;20102;-69
2021/05/02 01:18:09;;;;;;;16.50;11.15;;;;;;;5.22;100.00;95077.22;1007532;29;20123;-69
2021/05/02 01:18:40;;;;;;;18.33;11.23;;;;;;;5.23;100.00;95083.22;1019110;29;20281;-68
2021/05/02 01:19:11;;;;;;;13.10;9.60;;;;;;;5.16;100.00;95065.19;1018928;29;20040;-71
2021/05/02 01:19:42;;;;;;;15.60;10.70;;;;;;;5.21;100.00;95086.06;1024843;28;20027;-68
2021/05/02 01:20:13;;;;;;;14.70;9.63;;;;;;;5.19;100.00;95082.91;1022640;29;20302;-68
2021/05/02 01:20:43;;;;;;;12.45;9.25;;;;;;;5.15;100.00;95074.03;1019489;29;20024;-68
2021/05/02 01:21:15;;;;;;;11.13;8.38;;;;;;;5.18;100.00;95071.75;1019435;29;20666;-65
2021/05/02 01:21:45;;;;;;;14.88;9.50;;;;;;;5.16;100.00;95075.59;1019460;29;20038;-69
2021/05/02 01:22:20;;;;;;;11.77;8.30;;;;;;;5.13;100.00;95082.09;1030954;28;20276;-67
2021/05/02 01:22:51;;;;;;;10.88;8.73;;;;;;;5.07;100.00;95074.50;1026980;28;20121;-68
2021/05/02 01:23:25;;;;;;;11.85;7.78;;;;;;;5.08;100.00;95074.22;1018864;29;20294;-65
2021/05/02 01:23:59;;;;;;;13.30;9.82;;;;;;;5.14;100.00;95075.88;1020674;29;20020;-67
2021/05/02 01:24:30;;;;;;;12.95;9.18;;;;;;;5.15;100.00;95082.63;1018757;29;20271;-67
2021/05/02 01:25:00;;;;;;;12.15;8.30;;;;;;;5.13;100.00;95083.88;1015910;29;20372;-69
2021/05/02 01:25:31;;;;;;;12.52;8.70;;;;;;;5.12;100.00;95082.31;1015072;29;20044;-66
2021/05/02 01:26:01;;;;;;;16.42;9.77;;;;;;;5.11;100.00;95086.75;1015015;29;20020;-68
2021/05/02 01:26:32;;;;;;;10.80;7.90;;;;;;;5.12;100.00;95090.13;1022350;28;20038;-68
2021/05/02 01:27:02;;;;;;;13.60;8.55;;;;;;;5.12;100.00;95087.53;1024007;28;20069;-67
2021/05/02 01:27:33;;;;;;;12.05;8.32;;;;;;;5.09;100.00;95086.19;1026996;28;20035;-68
2021/05/02 01:28:04;;;;;;;13.45;9.30;;;;;;;5.11;100.00;95085.97;1027042;28;20035;-69
2021/05/02 01:28:35;;;;;;;12.93;9.23;;;;;;;5.13;100.00;95089.09;1018985;29;20038;-68
2021/05/02 01:29:06;;;;;;;16.60;10.32;;;;;;;5.11;100.00;95096.38;1019366;29;20267;-69
2021/05/02 01:29:36;;;;;;;13.35;9.40;;;;;;;5.12;100.00;95097.94;1015102;29;20654;-70
2021/05/02 01:30:08;;;;;;;18.33;10.30;;;;;;;5.12;100.00;95084.94;1020157;28;20027;-68
2021/05/02 01:30:39;;;;;;;10.77;8.32;;;;;;;5.11;100.00;95085.97;1027402;28;20023;-69
2021/05/02 01:31:09;;;;;;;11.15;8.20;;;;;;;5.12;100.00;95096.13;1027128;28;20270;-68
2021/05/02 01:31:41;;;;;;;11.52;8.40;;;;;;;5.13;100.00;95083.88;1030486;28;20034;-68
2021/05/02 01:32:11;;;;;;;11.05;7.80;;;;;;;5.13;100.00;95099.50;1027188;28;20079;-68
2021/05/02 01:32:42;;;;;;;11.70;8.05;;;;;;;5.10;100.00;95103.38;1026914;28;20309;-67
2021/05/02 01:33:12;;;;;;;12.32;8.68;;;;;;;5.00;100.00;95086.88;1026912;28;20027;-68
2021/05/02 01:33:43;;;;;;;10.90;7.95;;;;;;;5.07;100.00;95095.28;1031112;28;20034;-69
2021/05/02 01:34:13;;;;;;;9.05;7.47;;;;;;;5.07;100.00;95095.28;1027059;28;20435;-68
2021/05/02 01:34:44;;;;;;;10.13;7.78;;;;;;;5.01;100.00;95091.06;1031302;28;20034;-68
2021/05/02 01:35:14;;;;;;;10.93;7.68;;;;;;;4.95;100.00;95077.22;1025691;28;20034;-68
2021/05/02 01:35:45;;;;;;;9.95;7.68;;;;;;;5.05;100.00;95092.91;1027154;28;20031;-68
2021/05/02 01:36:16;;;;;;;13.18;8.45;;;;;;;5.08;100.00;95096.84;1031248;28;20030;-68
2021/05/02 01:36:46;;;;;;;9.98;7.57;;;;;;;5.08;100.00;95102.06;1029730;28;20068;-68
2021/05/02 01:37:17;;;;;;;10.48;7.78;;;;;;;5.06;100.00;95098.91;1031087;28;20125;-67
2021/05/02 01:37:48;;;;;;;11.07;8.10;;;;;;;5.07;100.00;95100.50;1031106;28;20022;-69
2021/05/02 01:38:19;;;;;;;12.30;9.07;;;;;;;5.07;100.00;95101.28;1030114;28;20057;-66
2021/05/02 01:38:50;;;;;;;10.90;7.82;;;;;;;5.06;100.00;95099.69;1027438;28;20343;-68
2021/05/02 01:39:21;;;;;;;14.27;9.23;;;;;;;5.06;100.00;95101.50;1026653;28;20108;-68
2021/05/02 01:39:51;;;;;;;15.00;10.00;;;;;;;5.04;100.00;95093.16;1026955;28;20266;-68
2021/05/02 01:40:22;;;;;;;10.70;7.50;;;;;;;5.02;100.00;95092.63;1027216;28;20027;-68
2021/05/02 01:40:53;;;;;;;15.25;9.80;;;;;;;5.06;100.00;95104.09;1026825;28;20030;-68
2021/05/02 01:41:27;;;;;;;15.98;10.30;;;;;;;5.08;100.00;95109.84;1019377;29;20028;-68
2021/05/02 01:41:57;;;;;;;16.80;10.82;;;;;;;5.07;100.00;95096.06;1018638;29;20714;-69
2021/05/02 01:42:28;;;;;;;11.85;8.18;;;;;;;5.07;100.00;95106.47;1019621;29;20300;-68
2021/05/02 01:42:58;;;;;;;12.32;8.93;;;;;;;5.05;100.00;95107.72;1019815;29;20000;-68
2021/05/02 01:43:29;;;;;;;15.20;9.90;;;;;;;5.07;100.00;95103.09;1016894;29;20072;-65
2021/05/02 01:43:59;;;;;;;12.68;8.80;;;;;;;5.05;100.00;95105.13;1020159;29;20489;-66
2021/05/02 01:44:29;;;;;;;15.82;10.63;;;;;;;5.06;100.00;95098.91;1018097;29;20016;-68
2021/05/02 01:45:00;;;;;;;13.88;9.55;;;;;;;5.04;100.00;95104.34;1021432;29;20104;-70
2021/05/02 01:45:31;;;;;;;17.30;10.50;;;;;;;5.04;100.00;95103.56;1029636;28;20105;-68
2021/05/02 01:46:02;;;;;;;15.45;10.55;;;;;;;5.06;100.00;95099.69;1026935;28;20019;-69
2021/05/02 01:46:36;;;;;;;15.05;10.35;;;;;;;4.95;100.00;95083.19;1026784;28;20062;-69
2021/05/02 01:47:16;;;;;;;16.45;11.10;;;;;;;5.05;100.00;95095.50;1018124;29;20271;-69
2021/05/02 01:47:48;;;;;;;15.38;9.77;;;;;;;5.06;100.00;95104.09;1016858;29;20637;-69
2021/05/02 01:48:19;;;;;;;17.80;10.85;;;;;;;5.04;100.00;95100.97;1020997;29;20119;-69
2021/05/02 01:48:49;;;;;;;18.15;11.52;;;;;;;5.03;100.00;95105.41;1017258;29;20773;-68
2021/05/02 01:49:20;;;;;;;18.35;11.75;;;;;;;5.04;100.00;95112.16;1018761;29;20031;-68
2021/05/02 01:49:56;;;;;;;19.02;10.57;;;;;;;5.05;100.00;95107.72;1014951;29;20581;-68
2021/05/02 01:50:26;;;;;;;19.42;11.38;;;;;;;5.08;100.00;95102.06;1018148;29;20023;-68
2021/05/02 01:51:00;;;;;;;15.48;10.15;;;;;;;5.06;100.00;95107.47;1019991;29;20268;-68
2021/05/02 01:51:31;;;;;;;16.08;10.30;;;;;;;5.08;100.00;95109.84;1031831;28;20022;-69
2021/05/02 01:52:02;;;;;;;19.75;11.52;;;;;;;5.06;100.00;95111.91;1030895;28;20320;-67
2021/05/02 01:52:35;;;;;;;19.05;11.75;;;;;;;5.07;100.00;95103.09;1034960;28;20280;-68
2021/05/02 01:53:05;;;;;;;19.40;12.30;;;;;;;5.07;100.00;95103.09;1022350;29;20064;-70
2021/05/02 01:53:36;;;;;;;21.90;11.98;;;;;;;5.07;100.00;95103.88;1022088;29;20767;-70
2021/05/02 01:54:07;;;;;;;20.67;11.38;;;;;;;5.09;100.00;95114.78;1019152;29;20059;-68
2021/05/02 01:54:37;;;;;;;19.13;11.18;;;;;;;5.09;100.00;95108.81;1022850;28;20267;-69
2021/05/02 01:55:08;;;;;;;13.05;9.48;;;;;;;5.07;100.00;95110.88;1022234;29;20023;-69
2021/05/02 01:55:39;;;;;;;14.63;9.93;;;;;;;5.03;100.00;95107.19;1021911;28;20066;-68
2021/05/02 01:56:09;;;;;;;14.40;9.82;;;;;;;5.05;100.00;95112.94;1026615;28;20536;-70
2021/05/02 01:56:40;;;;;;;16.27;9.80;;;;;;;5.07;100.00;95113.50;1027004;28;20058;-68
2021/05/02 01:57:11;;;;;;;15.43;10.68;;;;;;;5.05;100.00;95113.72;1022223;29;20039;-68
2021/05/02 01:57:42;;;;;;;15.50;9.77;;;;;;;5.04;100.00;95114.75;1019050;29;20548;-68
2021/05/02 01:58:12;;;;;;;13.38;9.38;;;;;;;5.05;100.00;95112.94;1018993;29;20270;-68
2021/05/02 01:58:43;;;;;;;17.35;11.05;;;;;;;5.08;100.00;95112.44;1023232;28;20746;-69
2021/05/02 01:59:13;;;;;;;15.57;9.20;;;;;;;5.05;100.00;95115.53;1030791;28;20050;-69
2021/05/02 01:59:44;;;;;;;14.00;9.68;;;;;;;5.05;100.00;95108.53;1030000;28;20019;-68
2021/05/02 02:00:21;;;;;;;16.55;10.65;;;;;;;5.06;100.00;95122.28;1023653;28;20023;-68
2021/05/02 02:00:52;;;;;;;15.57;9.45;;;;;;;5.05;100.00;95123.34;1027705;28;20512;-69
2021/05/02 02:01:23;;;;;;;16.67;9.48;;;;;;;5.06;100.00;95117.88;1030789;28;20344;-68
2021/05/02 02:01:53;;;;;;;13.02;9.40;;;;;;;5.07;100.00;95113.50;1030631;28;20265;-69
2021/05/02 02:02:25;;;;;;;16.38;9.80;;;;;;;4.90;100.00;95092.75;1028672;28;20033;-68
2021/05/02 02:02:58;;;;;;;16.35;10.60;;;;;;;5.06;100.00;95122.28;1021794;28;20023;-70
2021/05/02 02:03:30;;;;;;;11.43;8.52;;;;;;;5.05;100.00;95118.13;1025773;28;20282;-69
2021/05/02 02:04:04;;;;;;;13.90;9.35;;;;;;;5.06;100.00;95117.88;1023287;28;20281;-68
2021/05/02 02:04:35;;;;;;;12.10;8.20;;;;;;;4.99;100.00;95113.91;1030675;28;20921;-68
2021/05/02 02:05:06;;;;;;;11.80;8.43;;;;;;;5.03;100.00;95117.59;1032350;28;20743;-69
2021/05/02 02:05:37;;;;;;;14.32;9.65;;;;;;;5.02;100.00;95118.63;1030495;28;20277;-68
2021/05/02 02:06:08;;;;;;;15.23;9.57;;;;;;;5.05;100.00;95123.34;1026087;28;20025;-68
2021/05/02 02:06:38;;;;;;;15.20;9.52;;;;;;;5.06;100.00;95127.50;1014825;29;20268;-68
2021/05/02 02:07:11;;;;;;;15.13;9.73;;;;;;;5.07;100.00;95131.69;1019349;28;20045;-70
2021/05/02 02:07:42;;;;;;;11.93;8.23;;;;;;;5.00;100.00;95116.28;1031569;28;20506;-67
2021/05/02 02:08:12;;;;;;;14.18;9.77;;;;;;;5.04;100.00;95126.97;1030507;28;20356;-68
2021/05/02 02:08:43;;;;;;;13.15;8.95;;;;;;;5.05;100.00;95144.13;1023237;28;20027;-68
2021/05/02 02:09:13;;;;;;;12.20;8.57;;;;;;;5.04;100.00;95137.38;1022656;28;20023;-68
2021/05/02 02:09:44;;;;;;;16.73;11.10;;;;;;;5.03;100.00;95140.97;1022610;28;20021;-67
2021/05/02 02:10:18;;;;;;;16.13;9.75;;;;;;;5.03;100.00;95138.38;1024560;28;20019;-68
2021/05/02 02:10:50;;;;;;;19.05;11.07;;;;;;;5.01;100.00;95130.06;1026701;28;20054;-69
2021/05/02 02:11:20;;;;;;;15.00;9.73;;;;;;;5.01;100.00;95136.03;1019005;29;20349;-69
2021/05/02 02:11:51;;;;;;;18.33;10.38;;;;;;;5.03;100.00;95136.59;1019124;29;20263;-68
2021/05/02 02:12:22;;;;;;;16.70;10.15;;;;;;;5.02;100.00;95136.81;1018737;28;20024;-68
2021/05/02 02:12:52;;;;;;;15.88;9.55;;;;;;;5.06;100.00;95145.69;1029667;28;20261;-68
2021/05/02 02:13:23;;;;;;;20.80;11.52;;;;;;;5.04;100.00;95142.56;1034894;28;20029;-68
2021/05/02 02:13:53;;;;;;;19.85;11.02;;;;;;;5.04;100.00;95142.56;1030699;28;20834;-68
2021/05/02 02:14:24;;;;;;;17.05;10.50;;;;;;;4.95;100.00;95137.78;1026534;28;20798;-69
2021/05/02 02:14:54;;;;;;;15.02;10.27;;;;;;;5.04;100.00;95145.19;1030600;28;20092;-68
2021/05/02 02:15:26;;;;;;;18.83;11.00;;;;;;;5.04;100.00;95137.38;1029943;28;20030;-68
2021/05/02 02:15:56;;;;;;;13.57;9.85;;;;;;;5.00;100.00;95136.25;1030666;28;20025;-68
2021/05/02 02:16:27;;;;;;;17.42;10.80;;;;;;;5.05;100.00;95139.72;1022105;29;20812;-68
2021/05/02 02:16:57;;;;;;;16.52;10.80;;;;;;;5.05;100.00;95138.94;1011408;29;20031;-68
2021/05/02 02:17:28;;;;;;;23.83;12.38;;;;;;;5.06;100.00;95146.47;1015085;29;20064;-68
2021/05/02 02:17:58;;;;;;;15.43;10.65;;;;;;;5.03;100.00;95143.59;1018900;28;20024;-69
2021/05/02 02:18:29;;;;;;;18.30;11.15;;;;;;;5.03;100.00;95143.59;1030852;28;20041;-68
2021/05/02 02:18:59;;;;;;;14.98;10.45;;;;;;;5.01;100.00;95143.06;1030747;28;20025;-68
2021/05/02 02:19:30;;;;;;;16.75;10.75;;;;;;;5.03;100.00;95146.19;1031302;28;20045;-68
2021/05/02 02:20:00;;;;;;;19.63;11.57;;;;;;;5.02;100.00;95139.41;1026959;28;20511;-68
2021/05/02 02:20:36;;;;;;;19.23;11.48;;;;;;;5.02;100.00;95145.41;1022655;29;20039;-69
2021/05/02 02:21:07;;;;;;;18.25;11.32;;;;;;;4.96;100.00;95134.16;1018056;29;20023;-69
2021/05/02 02:21:38;;;;;;;16.73;10.75;;;;;;;5.00;100.00;95141.47;1015629;29;20797;-68
2021/05/02 02:22:08;;;;;;;19.13;11.95;;;;;;;4.99;100.00;95153.69;1014884;29;20260;-69
2021/05/02 02:22:40;;;;;;;21.13;12.30;;;;;;;4.99;100.00;95145.88;1018946;29;20394;-68
2021/05/02 02:23:17;;;;;;;21.05;12.05;;;;;;;4.99;100.00;95147.69;1014602;29;20027;-68
2021/05/02 02:24:00;;;;;;;24.65;13.73;;;;;;;5.02;100.00;95152.41;1020312;29;20327;-69
2021/05/02 02:24:58;;;;;;;16.33;10.20;;;;;;;4.95;100.00;95153.38;1025249;28;20277;-68
2021/05/02 02:25:28;;;;;;;17.15;10.40;;;;;;;4.94;100.00;95164.81;1029217;28;20269;-68
2021/05/02 02:26:16;;;;;;;13.48;8.52;;;;;;;4.90;100.00;95158.53;1018870;29;20602;-68
2021/05/02 02:26:51;;;;;;;15.85;10.80;;;;;;;4.89;100.00;95156.16;1019030;29;20059;-68
2021/05/02 02:27:24;;;;;;;15.23;9.50;;;;;;;4.91;100.00;95161.91;1021792;29;20427;-68
2021/05/02 02:27:56;;;;;;;18.98;11.43;;;;;;;4.84;100.00;95148.31;1025974;28;20273;-68
2021/05/02 02:28:26;;;;;;;18.48;11.95;;;;;;;4.88;100.00;95155.38;1018663;29;20264;-69
2021/05/02 02:28:57;;;;;;;21.85;12.60;;;;;;;4.88;100.00;95154.59;1018545;29;20263;-68